sensor_id;sensor_type;location;lat;lon;timestamp;pressure;altitude;pressure_sealevel;temperature;humidity
69855;BME280;57146;48.140;16.304;2022-09-06T00:00:15;99765.59;;;18.63;70.42
69855;BME280;57146;48.140;16.304;2022-09-06T00:02:43;99765.41;;;18.56;70.41
69855;BME280;57146;48.140;16.304;2022-09-06T00:05:11;99772.47;;;18.49;70.59
69855;BME280;57146;48.140;16.304;2022-09-06T00:07:39;99770.94;;;18.35;71.34
69855;BME280;57146;48.140;16.304;2022-09-06T00:10:07;99760.97;;;18.04;72.63
69855;BME280;57146;48.140;16.304;2022-09-06T00:12:35;99762.66;;;17.97;72.92
69855;BME280;57146;48.140;16.304;2022-09-06T00:15:03;99751.31;;;18.00;72.88
69855;BME280;57146;48.140;16.304;2022-09-06T00:17:31;99751.59;;;17.82;73.54
69855;BME280;57146;48.140;16.304;2022-09-06T00:19:59;99740.25;;;17.73;73.83
69855;BME280;57146;48.140;16.304;2022-09-06T00:22:25;99746.81;;;17.63;74.56
69855;BME280;57146;48.140;16.304;2022-09-06T00:24:52;99747.78;;;17.71;74.18
69855;BME280;57146;48.140;16.304;2022-09-06T00:27:19;99748.03;;;17.54;75.07
69855;BME280;57146;48.140;16.304;2022-09-06T00:29:46;99747.56;;;17.64;74.58
69855;BME280;57146;48.140;16.304;2022-09-06T00:32:13;99739.28;;;17.41;75.50
69855;BME280;57146;48.140;16.304;2022-09-06T00:34:39;99742.47;;;17.46;75.67
69855;BME280;57146;48.140;16.304;2022-09-06T00:37:06;99752.03;;;17.47;75.60
69855;BME280;57146;48.140;16.304;2022-09-06T00:39:33;99759.56;;;17.45;75.49
69855;BME280;57146;48.140;16.304;2022-09-06T00:42:00;99757.56;;;17.42;75.57
69855;BME280;57146;48.140;16.304;2022-09-06T00:44:27;99756.47;;;17.31;76.07
69855;BME280;57146;48.140;16.304;2022-09-06T00:46:54;99741.81;;;17.25;76.22
69855;BME280;57146;48.140;16.304;2022-09-06T00:49:30;99740.50;;;17.31;75.90
69855;BME280;57146;48.140;16.304;2022-09-06T00:52:02;99741.94;;;17.41;75.16
69855;BME280;57146;48.140;16.304;2022-09-06T00:54:30;99739.28;;;17.41;75.23
69855;BME280;57146;48.140;16.304;2022-09-06T00:56:58;99739.41;;;17.44;75.26
69855;BME280;57146;48.140;16.304;2022-09-06T00:59:27;99750.16;;;17.23;76.42
69855;BME280;57146;48.140;16.304;2022-09-06T01:01:55;99748.03;;;17.17;76.55
69855;BME280;57146;48.140;16.304;2022-09-06T01:04:22;99749.50;;;17.27;75.78
69855;BME280;57146;48.140;16.304;2022-09-06T01:07:00;99742.50;;;17.22;76.17
69855;BME280;57146;48.140;16.304;2022-09-06T01:15:51;99735.03;;;17.64;74.39
69855;BME280;57146;48.140;16.304;2022-09-06T01:18:44;99739.69;;;17.67;74.22
69855;BME280;57146;48.140;16.304;2022-09-06T01:21:37;99740.03;;;17.54;74.51
69855;BME280;57146;48.140;16.304;2022-09-06T01:29:49;99730.06;;;17.02;76.79
69855;BME280;57146;48.140;16.304;2022-09-06T01:32:30;99744.06;;;17.23;76.26
69855;BME280;57146;48.140;16.304;2022-09-06T01:35:28;99745.63;;;17.36;75.28
69855;BME280;57146;48.140;16.304;2022-09-06T01:37:58;99748.03;;;17.54;74.81
69855;BME280;57146;48.140;16.304;2022-09-06T01:40:25;99744.06;;;17.47;74.55
69855;BME280;57146;48.140;16.304;2022-09-06T01:42:53;99742.81;;;17.45;74.57
69855;BME280;57146;48.140;16.304;2022-09-06T01:45:40;99746.69;;;17.11;76.27
69855;BME280;57146;48.140;16.304;2022-09-06T01:48:25;99747.47;;;16.99;76.95
69855;BME280;57146;48.140;16.304;2022-09-06T01:51:30;99741.94;;;17.04;76.23
69855;BME280;57146;48.140;16.304;2022-09-06T02:02:01;99732.69;;;16.77;77.30
69855;BME280;57146;48.140;16.304;2022-09-06T02:07:15;99728.19;;;16.57;78.61
69855;BME280;57146;48.140;16.304;2022-09-06T02:09:50;99729.28;;;16.56;78.48
69855;BME280;57146;48.140;16.304;2022-09-06T02:12:19;99732.59;;;16.52;78.41
69855;BME280;57146;48.140;16.304;2022-09-06T02:14:56;99726.41;;;16.61;78.05
69855;BME280;57146;48.140;16.304;2022-09-06T02:17:30;99725.03;;;16.42;79.23
69855;BME280;57146;48.140;16.304;2022-09-06T02:20:03;99718.81;;;16.38;79.10
69855;BME280;57146;48.140;16.304;2022-09-06T02:22:36;99716.38;;;16.33;78.78
69855;BME280;57146;48.140;16.304;2022-09-06T02:25:08;99704.88;;;16.41;78.96
69855;BME280;57146;48.140;16.304;2022-09-06T02:27:35;99712.91;;;16.33;79.24
69855;BME280;57146;48.140;16.304;2022-09-06T02:30:04;99711.78;;;16.21;80.32
69855;BME280;57146;48.140;16.304;2022-09-06T02:32:39;99721.72;;;16.12;80.53
69855;BME280;57146;48.140;16.304;2022-09-06T02:35:13;99721.97;;;16.19;80.01
69855;BME280;57146;48.140;16.304;2022-09-06T02:37:42;99722.09;;;16.23;80.15
69855;BME280;57146;48.140;16.304;2022-09-06T02:40:10;99712.50;;;16.10;80.64
69855;BME280;57146;48.140;16.304;2022-09-06T02:42:38;99718.84;;;16.17;80.22
69855;BME280;57146;48.140;16.304;2022-09-06T02:45:07;99718.94;;;16.09;80.18
69855;BME280;57146;48.140;16.304;2022-09-06T02:47:34;99720.44;;;15.97;81.01
69855;BME280;57146;48.140;16.304;2022-09-06T02:50:01;99723.03;;;16.39;79.69
69855;BME280;57146;48.140;16.304;2022-09-06T02:52:28;99721.50;;;16.50;78.52
69855;BME280;57146;48.140;16.304;2022-09-06T02:54:55;99724.09;;;16.26;79.43
69855;BME280;57146;48.140;16.304;2022-09-06T02:57:22;99718.00;;;16.25;79.18
69855;BME280;57146;48.140;16.304;2022-09-06T02:59:48;99714.69;;;16.08;80.18
69855;BME280;57146;48.140;16.304;2022-09-06T03:02:15;99716.28;;;15.88;80.72
69855;BME280;57146;48.140;16.304;2022-09-06T03:04:42;99715.75;;;15.94;81.07
69855;BME280;57146;48.140;16.304;2022-09-06T03:07:09;99713.66;;;16.21;80.04
69855;BME280;57146;48.140;16.304;2022-09-06T03:09:36;99717.31;;;16.49;78.80
69855;BME280;57146;48.140;16.304;2022-09-06T03:12:03;99714.97;;;16.48;78.37
69855;BME280;57146;48.140;16.304;2022-09-06T03:14:30;99718.03;;;16.38;78.70
69855;BME280;57146;48.140;16.304;2022-09-06T03:16:57;99721.06;;;16.48;78.29
69855;BME280;57146;48.140;16.304;2022-09-06T03:19:23;99705.59;;;16.63;78.20
69855;BME280;57146;48.140;16.304;2022-09-06T03:21:50;99715.25;;;16.67;77.29
69855;BME280;57146;48.140;16.304;2022-09-06T03:24:17;99718.44;;;16.61;77.43
69855;BME280;57146;48.140;16.304;2022-09-06T03:26:44;99713.13;;;16.61;77.25
69855;BME280;57146;48.140;16.304;2022-09-06T03:29:11;99708.69;;;16.52;77.32
69855;BME280;57146;48.140;16.304;2022-09-06T03:31:37;99712.38;;;16.27;78.60
69855;BME280;57146;48.140;16.304;2022-09-06T03:34:04;99709.00;;;16.18;78.67
69855;BME280;57146;48.140;16.304;2022-09-06T03:36:36;99710.50;;;15.86;79.92
69855;BME280;57146;48.140;16.304;2022-09-06T03:39:03;99696.59;;;15.89;80.03
69855;BME280;57146;48.140;16.304;2022-09-06T03:41:30;99700.88;;;15.81;80.42
69855;BME280;57146;48.140;16.304;2022-09-06T03:43:57;99696.72;;;15.71;81.14
69855;BME280;57146;48.140;16.304;2022-09-06T03:46:24;99702.81;;;15.63;81.49
69855;BME280;57146;48.140;16.304;2022-09-06T03:48:50;99694.53;;;15.65;81.10
69855;BME280;57146;48.140;16.304;2022-09-06T03:51:17;99698.16;;;15.69;80.80
69855;BME280;57146;48.140;16.304;2022-09-06T03:53:44;99700.88;;;15.81;79.96
69855;BME280;57146;48.140;16.304;2022-09-06T03:56:11;99700.41;;;15.79;80.68
69855;BME280;57146;48.140;16.304;2022-09-06T03:58:38;99708.06;;;16.01;79.97
69855;BME280;57146;48.140;16.304;2022-09-06T04:01:10;99712.25;;;16.23;79.00
69855;BME280;57146;48.140;16.304;2022-09-06T04:03:38;99719.94;;;16.37;78.67
69855;BME280;57146;48.140;16.304;2022-09-06T04:06:06;99715.28;;;16.34;78.25
69855;BME280;57146;48.140;16.304;2022-09-06T04:08:34;99709.31;;;16.37;78.02
69855;BME280;57146;48.140;16.304;2022-09-06T04:11:02;99711.63;;;16.39;78.01
69855;BME280;57146;48.140;16.304;2022-09-06T04:13:31;99713.72;;;16.33;78.11
69855;BME280;57146;48.140;16.304;2022-09-06T04:15:58;99714.56;;;16.25;78.43
69855;BME280;57146;48.140;16.304;2022-09-06T04:18:25;99710.09;;;16.17;78.39
69855;BME280;57146;48.140;16.304;2022-09-06T04:20:53;99705.41;;;15.80;79.57
69855;BME280;57146;48.140;16.304;2022-09-06T04:23:24;99703.97;;;15.53;81.40
69855;BME280;57146;48.140;16.304;2022-09-06T04:25:54;99705.66;;;15.58;80.93
69855;BME280;57146;48.140;16.304;2022-09-06T04:28:22;99704.88;;;15.57;81.27
69855;BME280;57146;48.140;16.304;2022-09-06T04:30:57;99702.38;;;15.61;80.77
69855;BME280;57146;48.140;16.304;2022-09-06T04:33:30;99708.50;;;15.53;81.35
69855;BME280;57146;48.140;16.304;2022-09-06T04:35:59;99707.59;;;15.49;81.41
69855;BME280;57146;48.140;16.304;2022-09-06T04:38:29;99703.75;;;15.67;81.32
69855;BME280;57146;48.140;16.304;2022-09-06T04:40:56;99705.47;;;15.63;80.89
69855;BME280;57146;48.140;16.304;2022-09-06T04:43:23;99715.22;;;15.50;82.23
69855;BME280;57146;48.140;16.304;2022-09-06T04:45:50;99710.72;;;15.80;80.43
69855;BME280;57146;48.140;16.304;2022-09-06T04:48:17;99709.59;;;16.02;79.83
69855;BME280;57146;48.140;16.304;2022-09-06T04:50:44;99719.25;;;16.07;79.42
69855;BME280;57146;48.140;16.304;2022-09-06T04:53:11;99716.72;;;16.11;79.40
69855;BME280;57146;48.140;16.304;2022-09-06T04:55:38;99719.84;;;16.13;79.26
69855;BME280;57146;48.140;16.304;2022-09-06T04:58:05;99718.41;;;16.15;79.11
69855;BME280;57146;48.140;16.304;2022-09-06T05:00:33;99723.84;;;16.19;78.65
69855;BME280;57146;48.140;16.304;2022-09-06T05:03:01;99728.56;;;16.13;78.94
69855;BME280;57146;48.140;16.304;2022-09-06T05:05:27;99726.69;;;16.14;79.29
69855;BME280;57146;48.140;16.304;2022-09-06T05:07:55;99729.69;;;16.12;79.39
69855;BME280;57146;48.140;16.304;2022-09-06T05:10:22;99727.78;;;16.13;79.17
69855;BME280;57146;48.140;16.304;2022-09-06T05:12:50;99725.44;;;16.11;79.46
69855;BME280;57146;48.140;16.304;2022-09-06T05:15:19;99723.13;;;16.10;79.27
69855;BME280;57146;48.140;16.304;2022-09-06T05:17:47;99730.31;;;16.09;79.60
69855;BME280;57146;48.140;16.304;2022-09-06T05:20:14;99724.81;;;16.14;79.26
69855;BME280;57146;48.140;16.304;2022-09-06T05:22:41;99729.81;;;16.16;79.65
69855;BME280;57146;48.140;16.304;2022-09-06T05:25:09;99723.84;;;16.19;79.65
69855;BME280;57146;48.140;16.304;2022-09-06T05:27:36;99726.81;;;16.17;79.99
69855;BME280;57146;48.140;16.304;2022-09-06T05:30:03;99725.53;;;16.23;79.20
69855;BME280;57146;48.140;16.304;2022-09-06T05:32:30;99734.59;;;16.22;79.99
69855;BME280;57146;48.140;16.304;2022-09-06T05:34:57;99734.72;;;16.26;79.79
69855;BME280;57146;48.140;16.304;2022-09-06T05:37:24;99732.63;;;16.32;79.89
69855;BME280;57146;48.140;16.304;2022-09-06T05:39:50;99743.19;;;16.40;79.00
69855;BME280;57146;48.140;16.304;2022-09-06T05:42:17;99749.06;;;16.46;78.95
69855;BME280;57146;48.140;16.304;2022-09-06T05:44:45;99737.91;;;16.52;78.35
69855;BME280;57146;48.140;16.304;2022-09-06T05:47:11;99738.03;;;16.56;78.61
69855;BME280;57146;48.140;16.304;2022-09-06T05:49:39;99736.72;;;16.62;78.40
69855;BME280;57146;48.140;16.304;2022-09-06T05:52:05;99742.94;;;16.66;78.39
69855;BME280;57146;48.140;16.304;2022-09-06T05:54:32;99736.84;;;16.66;78.64
69855;BME280;57146;48.140;16.304;2022-09-06T05:56:59;99739.28;;;16.71;78.49
69855;BME280;57146;48.140;16.304;2022-09-06T05:59:26;99742.56;;;16.77;78.23
69855;BME280;57146;48.140;16.304;2022-09-06T06:01:53;99746.75;;;16.78;78.50
69855;BME280;57146;48.140;16.304;2022-09-06T06:04:20;99746.56;;;16.83;78.40
69855;BME280;57146;48.140;16.304;2022-09-06T06:06:47;99747.88;;;16.89;78.68
69855;BME280;57146;48.140;16.304;2022-09-06T06:09:15;99743.47;;;16.93;77.74
69855;BME280;57146;48.140;16.304;2022-09-06T06:11:42;99749.81;;;17.01;77.98
69855;BME280;57146;48.140;16.304;2022-09-06T06:14:09;99744.25;;;17.06;77.55
69855;BME280;57146;48.140;16.304;2022-09-06T06:16:36;99739.81;;;17.10;77.81
69855;BME280;57146;48.140;16.304;2022-09-06T06:19:03;99739.94;;;17.13;77.22
69855;BME280;57146;48.140;16.304;2022-09-06T06:21:32;99738.16;;;17.17;77.05
69855;BME280;57146;48.140;16.304;2022-09-06T06:24:01;99743.72;;;17.24;76.35
69855;BME280;57146;48.140;16.304;2022-09-06T06:26:33;99745.16;;;17.34;76.73
69855;BME280;57146;48.140;16.304;2022-09-06T06:29:01;99739.28;;;17.41;76.28
69855;BME280;57146;48.140;16.304;2022-09-06T06:31:29;99747.13;;;17.50;75.38
69855;BME280;57146;48.140;16.304;2022-09-06T06:33:57;99742.03;;;17.57;75.25
69855;BME280;57146;48.140;16.304;2022-09-06T06:36:25;99739.03;;;17.70;74.84
69855;BME280;57146;48.140;16.304;2022-09-06T06:38:53;99740.13;;;17.82;74.14
69855;BME280;57146;48.140;16.304;2022-09-06T06:41:26;99745.88;;;17.96;74.36
69855;BME280;57146;48.140;16.304;2022-09-06T06:43:54;99739.09;;;18.11;73.98
69855;BME280;57146;48.140;16.304;2022-09-06T06:46:30;99733.06;;;18.14;72.50
69855;BME280;57146;48.140;16.304;2022-09-06T06:48:57;99740.16;;;18.22;72.76
69855;BME280;57146;48.140;16.304;2022-09-06T06:51:27;99748.75;;;18.31;71.94
69855;BME280;57146;48.140;16.304;2022-09-06T06:53:55;99743.63;;;18.38;71.89
69855;BME280;57146;48.140;16.304;2022-09-06T06:58:58;99747.31;;;18.62;71.23
69855;BME280;57146;48.140;16.304;2022-09-06T07:01:30;99748.38;;;18.73;71.20
69855;BME280;57146;48.140;16.304;2022-09-06T07:03:58;99754.66;;;18.81;70.56
69855;BME280;57146;48.140;16.304;2022-09-06T07:06:25;99746.41;;;18.86;69.90
69855;BME280;57146;48.140;16.304;2022-09-06T07:09:12;99750.03;;;18.94;70.07
69855;BME280;57146;48.140;16.304;2022-09-06T07:11:39;99747.53;;;19.01;69.37
69855;BME280;57146;48.140;16.304;2022-09-06T07:14:06;99739.63;;;19.04;69.62
69855;BME280;57146;48.140;16.304;2022-09-06T07:16:33;99742.19;;;19.17;68.82
69855;BME280;57146;48.140;16.304;2022-09-06T07:18:59;99748.13;;;19.26;68.91
69855;BME280;57146;48.140;16.304;2022-09-06T07:21:26;99746.41;;;19.33;68.32
69855;BME280;57146;48.140;16.304;2022-09-06T07:24:08;99744.59;;;19.37;68.65
69855;BME280;57146;48.140;16.304;2022-09-06T07:26:37;99744.41;;;19.46;68.32
69855;BME280;57146;48.140;16.304;2022-09-06T07:29:06;99752.06;;;19.48;67.72
69855;BME280;57146;48.140;16.304;2022-09-06T07:31:36;99754.13;;;19.54;68.00
69855;BME280;57146;48.140;16.304;2022-09-06T07:34:23;99760.50;;;19.66;68.59
69855;BME280;57146;48.140;16.304;2022-09-06T07:36:56;99748.59;;;19.79;67.49
69855;BME280;57146;48.140;16.304;2022-09-06T07:39:23;99762.78;;;19.83;67.06
69855;BME280;57146;48.140;16.304;2022-09-06T07:41:50;99757.78;;;19.81;66.48
69855;BME280;57146;48.140;16.304;2022-09-06T07:44:16;99765.53;;;19.87;66.95
69855;BME280;57146;48.140;16.304;2022-09-06T07:46:43;99760.69;;;19.92;66.93
69855;BME280;57146;48.140;16.304;2022-09-06T07:49:10;99759.91;;;19.92;65.81
69855;BME280;57146;48.140;16.304;2022-09-06T07:51:37;99760.41;;;19.97;65.90
69855;BME280;57146;48.140;16.304;2022-09-06T07:54:04;99756.34;;;20.03;65.47
69855;BME280;57146;48.140;16.304;2022-09-06T07:56:51;99767.50;;;20.09;66.63
69855;BME280;57146;48.140;16.304;2022-09-06T07:59:18;99759.31;;;20.18;65.76
69855;BME280;57146;48.140;16.304;2022-09-06T08:01:45;99755.56;;;20.22;66.51
69855;BME280;57146;48.140;16.304;2022-09-06T08:04:13;99762.59;;;20.30;65.01
69855;BME280;57146;48.140;16.304;2022-09-06T08:06:42;99756.91;;;20.32;65.15
69855;BME280;57146;48.140;16.304;2022-09-06T08:09:30;99752.03;;;20.38;65.52
69855;BME280;57146;48.140;16.304;2022-09-06T08:11:57;99754.44;;;20.43;64.63
69855;BME280;57146;48.140;16.304;2022-09-06T08:14:24;99756.97;;;20.55;65.57
69855;BME280;57146;48.140;16.304;2022-09-06T08:16:51;99759.44;;;20.64;64.27
69855;BME280;57146;48.140;16.304;2022-09-06T08:19:17;99754.84;;;20.64;63.95
69855;BME280;57146;48.140;16.304;2022-09-06T08:21:44;99760.97;;;20.65;64.47
69855;BME280;57146;48.140;16.304;2022-09-06T08:24:11;99761.75;;;20.65;63.83
69855;BME280;57146;48.140;16.304;2022-09-06T08:26:38;99745.69;;;20.65;63.27
69855;BME280;57146;48.140;16.304;2022-09-06T08:29:06;99746.63;;;20.53;64.01
69855;BME280;57146;48.140;16.304;2022-09-06T08:31:35;99752.59;;;20.66;64.62
69855;BME280;57146;48.140;16.304;2022-09-06T08:34:03;99737.38;;;20.70;63.88
69855;BME280;57146;48.140;16.304;2022-09-06T08:36:30;99741.84;;;20.86;63.80
69855;BME280;57146;48.140;16.304;2022-09-06T08:38:58;99741.91;;;20.89;63.25
69855;BME280;57146;48.140;16.304;2022-09-06T08:41:45;99745.53;;;21.00;63.34
69855;BME280;57146;48.140;16.304;2022-09-06T08:44:16;99741.31;;;20.99;63.04
69855;BME280;57146;48.140;16.304;2022-09-06T08:47:12;99742.47;;;21.02;62.33
69855;BME280;57146;48.140;16.304;2022-09-06T08:49:47;99736.72;;;21.00;64.06
69855;BME280;57146;48.140;16.304;2022-09-06T08:55:40;99735.69;;;21.08;63.07
69855;BME280;57146;48.140;16.304;2022-09-06T09:01:02;99724.19;;;21.31;63.63
69855;BME280;57146;48.140;16.304;2022-09-06T09:03:34;99724.75;;;21.40;63.49
69855;BME280;57146;48.140;16.304;2022-09-06T09:06:04;99724.41;;;21.45;61.81
69855;BME280;57146;48.140;16.304;2022-09-06T09:11:19;99728.22;;;21.44;61.90
69855;BME280;57146;48.140;16.304;2022-09-06T09:17:14;99727.28;;;21.59;60.77
69855;BME280;57146;48.140;16.304;2022-09-06T09:19:41;99720.72;;;21.53;61.34
69855;BME280;57146;48.140;16.304;2022-09-06T09:22:09;99714.13;;;21.47;62.00
69855;BME280;57146;48.140;16.304;2022-09-06T09:24:36;99717.31;;;21.56;62.52
69855;BME280;57146;48.140;16.304;2022-09-06T09:27:06;99711.97;;;21.56;62.16
69855;BME280;57146;48.140;16.304;2022-09-06T09:32:43;99694.16;;;21.71;61.06
69855;BME280;57146;48.140;16.304;2022-09-06T09:41:00;99690.75;;;21.74;61.91
69855;BME280;57146;48.140;16.304;2022-09-06T09:43:29;99690.13;;;21.88;62.72
69855;BME280;57146;48.140;16.304;2022-09-06T09:46:27;99690.69;;;22.00;61.33
69855;BME280;57146;48.140;16.304;2022-09-06T09:51:42;99674.28;;;22.06;61.39
69855;BME280;57146;48.140;16.304;2022-09-06T09:54:14;99677.78;;;22.10;60.85
69855;BME280;57146;48.140;16.304;2022-09-06T09:56:55;99678.22;;;22.15;61.52
69855;BME280;57146;48.140;16.304;2022-09-06T09:59:27;99667.56;;;22.22;60.77
69855;BME280;57146;48.140;16.304;2022-09-06T10:01:58;99671.50;;;22.32;61.11
69855;BME280;57146;48.140;16.304;2022-09-06T10:04:35;99667.72;;;22.37;60.89
69855;BME280;57146;48.140;16.304;2022-09-06T10:07:13;99668.84;;;22.36;60.21
69855;BME280;57146;48.140;16.304;2022-09-06T10:09:46;99664.22;;;22.33;60.38
69855;BME280;57146;48.140;16.304;2022-09-06T10:12:33;99656.66;;;22.42;59.23
69855;BME280;57146;48.140;16.304;2022-09-06T10:15:01;99655.91;;;22.41;59.27
69855;BME280;57146;48.140;16.304;2022-09-06T10:17:47;99651.56;;;22.30;59.56
69855;BME280;57146;48.140;16.304;2022-09-06T10:20:14;99657.31;;;22.32;59.70
69855;BME280;57146;48.140;16.304;2022-09-06T10:25:57;99664.25;;;22.36;59.66
69855;BME280;57146;48.140;16.304;2022-09-06T10:28:33;99660.47;;;22.41;59.17
69855;BME280;57146;48.140;16.304;2022-09-06T10:35:59;99655.25;;;22.59;60.85
69855;BME280;57146;48.140;16.304;2022-09-06T10:38:53;99651.84;;;22.65;60.02
69855;BME280;57146;48.140;16.304;2022-09-06T10:44:39;99654.22;;;22.70;59.82
69855;BME280;57146;48.140;16.304;2022-09-06T10:47:12;99648.94;;;22.81;58.09
69855;BME280;57146;48.140;16.304;2022-09-06T10:49:43;99650.50;;;22.86;57.93
69855;BME280;57146;48.140;16.304;2022-09-06T10:52:14;99639.69;;;22.75;58.64
69855;BME280;57146;48.140;16.304;2022-09-06T10:54:44;99640.88;;;22.81;58.50
69855;BME280;57146;48.140;16.304;2022-09-06T10:57:21;99636.28;;;22.82;58.34
69855;BME280;57146;48.140;16.304;2022-09-06T11:00:12;99640.13;;;22.84;58.20
69855;BME280;57146;48.140;16.304;2022-09-06T11:02:54;99643.91;;;22.80;58.16
69855;BME280;57146;48.140;16.304;2022-09-06T11:05:53;99635.94;;;22.90;58.05
69855;BME280;57146;48.140;16.304;2022-09-06T11:11:46;99622.22;;;22.96;57.53
69855;BME280;57146;48.140;16.304;2022-09-06T11:14:12;99626.47;;;23.04;56.65
69855;BME280;57146;48.140;16.304;2022-09-06T11:16:55;99618.09;;;23.12;56.60
69855;BME280;57146;48.140;16.304;2022-09-06T11:19:28;99613.53;;;23.20;56.32
69855;BME280;57146;48.140;16.304;2022-09-06T11:22:36;99618.56;;;23.29;55.57
69855;BME280;57146;48.140;16.304;2022-09-06T11:27:44;99618.94;;;23.27;56.75
69855;BME280;57146;48.140;16.304;2022-09-06T11:30:14;99621.63;;;23.31;56.13
69855;BME280;57146;48.140;16.304;2022-09-06T11:32:48;99616.28;;;23.34;55.38
69855;BME280;57146;48.140;16.304;2022-09-06T11:38:00;99606.31;;;23.35;55.39
69855;BME280;57146;48.140;16.304;2022-09-06T11:40:35;99604.00;;;23.37;55.12
69855;BME280;57146;48.140;16.304;2022-09-06T11:48:58;99606.00;;;23.58;55.06
69855;BME280;57146;48.140;16.304;2022-09-06T11:51:42;99614.06;;;23.61;55.37
69855;BME280;57146;48.140;16.304;2022-09-06T11:57:00;99601.84;;;23.68;54.88
69855;BME280;57146;48.140;16.304;2022-09-06T12:02:37;99595.72;;;23.78;54.28
69855;BME280;57146;48.140;16.304;2022-09-06T12:07:35;99586.91;;;23.81;54.64
69855;BME280;57146;48.140;16.304;2022-09-06T12:12:56;99586.16;;;23.84;54.44
69855;BME280;57146;48.140;16.304;2022-09-06T12:15:30;99582.69;;;23.90;53.76
69855;BME280;57146;48.140;16.304;2022-09-06T12:17:58;99587.31;;;23.94;54.67
69855;BME280;57146;48.140;16.304;2022-09-06T12:26:03;99572.75;;;24.09;53.38
69855;BME280;57146;48.140;16.304;2022-09-06T12:31:22;99572.00;;;24.26;53.68
69855;BME280;57146;48.140;16.304;2022-09-06T12:33:51;99564.28;;;24.32;53.42
69855;BME280;57146;48.140;16.304;2022-09-06T12:36:20;99566.22;;;24.35;52.83
69855;BME280;57146;48.140;16.304;2022-09-06T12:38:57;99562.75;;;24.34;53.04
69855;BME280;57146;48.140;16.304;2022-09-06T12:41:28;99556.63;;;24.41;52.99
69855;BME280;57146;48.140;16.304;2022-09-06T12:43:59;99559.66;;;24.32;52.72
69855;BME280;57146;48.140;16.304;2022-09-06T12:46:29;99555.47;;;24.28;53.15
69855;BME280;57146;48.140;16.304;2022-09-06T12:49:08;99545.44;;;24.39;53.25
69855;BME280;57146;48.140;16.304;2022-09-06T12:51:41;99550.84;;;24.46;53.45
69855;BME280;57146;48.140;16.304;2022-09-06T12:54:40;99547.38;;;24.60;52.60
69855;BME280;57146;48.140;16.304;2022-09-06T12:59:54;99546.94;;;24.76;52.04
69855;BME280;57146;48.140;16.304;2022-09-06T13:02:33;99538.91;;;24.65;51.98
69855;BME280;57146;48.140;16.304;2022-09-06T13:05:05;99536.22;;;24.61;52.23
69855;BME280;57146;48.140;16.304;2022-09-06T13:07:35;99528.94;;;24.62;52.40
69855;BME280;57146;48.140;16.304;2022-09-06T13:10:04;99542.75;;;24.68;52.39
69855;BME280;57146;48.140;16.304;2022-09-06T13:12:41;99542.38;;;24.73;51.79
69855;BME280;57146;48.140;16.304;2022-09-06T13:17:44;99542.34;;;24.76;52.07
69855;BME280;57146;48.140;16.304;2022-09-06T13:20:21;99539.28;;;24.74;52.05
69855;BME280;57146;48.140;16.304;2022-09-06T13:22:49;99527.72;;;24.81;51.07
69855;BME280;57146;48.140;16.304;2022-09-06T13:27:48;99534.28;;;24.76;51.96
69855;BME280;57146;48.140;16.304;2022-09-06T13:30:38;99525.44;;;24.69;51.41
69855;BME280;57146;48.140;16.304;2022-09-06T13:33:06;99521.63;;;24.63;51.78
69855;BME280;57146;48.140;16.304;2022-09-06T13:38:44;99523.13;;;24.74;51.55
69855;BME280;57146;48.140;16.304;2022-09-06T13:44:05;99517.31;;;24.83;51.49
69855;BME280;57146;48.140;16.304;2022-09-06T13:46:33;99511.53;;;24.88;51.84
69855;BME280;57146;48.140;16.304;2022-09-06T13:49:00;99502.72;;;24.88;51.32
69855;BME280;57146;48.140;16.304;2022-09-06T13:51:28;99511.94;;;24.83;51.27
69855;BME280;57146;48.140;16.304;2022-09-06T13:56:31;99498.09;;;24.88;50.34
69855;BME280;57146;48.140;16.304;2022-09-06T13:58:58;99510.03;;;24.80;50.55
69855;BME280;57146;48.140;16.304;2022-09-06T14:01:25;99504.69;;;24.73;51.41
69855;BME280;57146;48.140;16.304;2022-09-06T14:03:52;99510.44;;;24.75;51.32
69855;BME280;57146;48.140;16.304;2022-09-06T14:06:20;99508.91;;;24.70;51.89
69855;BME280;57146;48.140;16.304;2022-09-06T14:08:47;99505.03;;;24.75;50.82
69855;BME280;57146;48.140;16.304;2022-09-06T14:11:33;99515.81;;;24.78;50.88
69855;BME280;57146;48.140;16.304;2022-09-06T14:14:00;99515.03;;;24.81;50.62
69855;BME280;57146;48.140;16.304;2022-09-06T14:16:27;99509.25;;;24.83;50.16
69855;BME280;57146;48.140;16.304;2022-09-06T14:18:54;99509.63;;;24.85;49.92
69855;BME280;57146;48.140;16.304;2022-09-06T14:21:21;99507.34;;;24.80;50.49
69855;BME280;57146;48.140;16.304;2022-09-06T14:23:51;99508.88;;;24.84;50.15
69855;BME280;57146;48.140;16.304;2022-09-06T14:26:19;99503.09;;;24.82;50.92
69855;BME280;57146;48.140;16.304;2022-09-06T14:28:50;99494.28;;;24.75;50.47
69855;BME280;57146;48.140;16.304;2022-09-06T14:31:23;99495.00;;;24.86;50.42
69855;BME280;57146;48.140;16.304;2022-09-06T14:33:52;99489.25;;;24.88;50.89
69855;BME280;57146;48.140;16.304;2022-09-06T14:36:22;99489.22;;;24.95;50.57
69855;BME280;57146;48.140;16.304;2022-09-06T14:38:49;99485.75;;;24.94;50.82
69855;BME280;57146;48.140;16.304;2022-09-06T14:41:17;99481.13;;;24.95;50.42
69855;BME280;57146;48.140;16.304;2022-09-06T14:43:50;99477.69;;;24.94;50.32
69855;BME280;57146;48.140;16.304;2022-09-06T14:46:19;99481.91;;;24.92;51.26
69855;BME280;57146;48.140;16.304;2022-09-06T14:48:46;99480.38;;;24.91;50.62
69855;BME280;57146;48.140;16.304;2022-09-06T14:51:18;99473.44;;;24.93;50.56
69855;BME280;57146;48.140;16.304;2022-09-06T14:53:46;99486.09;;;25.00;50.92
69855;BME280;57146;48.140;16.304;2022-09-06T14:56:14;99486.47;;;25.05;50.45
69855;BME280;57146;48.140;16.304;2022-09-06T14:58:41;99486.53;;;24.95;49.98